createdAt,value
2023-03-29T00:00:51.426Z,79.82
2023-03-29T00:03:03.192Z,79.75
2023-03-29T00:05:15.207Z,79.73
2023-03-29T00:07:26.611Z,79.75
2023-03-29T00:09:36.992Z,79.65
2023-03-29T00:11:46.900Z,79.79
2023-03-29T00:13:56.972Z,79.77
2023-03-29T00:16:07.772Z,79.57
2023-03-29T00:18:18.512Z,79.54
2023-03-29T00:20:31.090Z,79.40
2023-03-29T00:22:43.751Z,79.21
2023-03-29T00:24:54.673Z,78.98
2023-03-29T00:27:04.690Z,79.22
2023-03-29T00:29:14.729Z,79.17
2023-03-29T00:31:24.454Z,79.33
2023-03-29T00:33:34.758Z,79.30
2023-03-29T00:35:44.976Z,79.23
2023-03-29T00:37:54.908Z,79.34
2023-03-29T00:40:18.840Z,79.31
2023-03-29T00:42:31.982Z,79.19
2023-03-29T00:45:21.191Z,79.49
2023-03-29T00:47:34.822Z,79.46
2023-03-29T00:49:45.449Z,79.56
2023-03-29T00:51:55.662Z,79.51
2023-03-29T00:54:07.060Z,79.50
2023-03-29T00:56:20.951Z,79.51
2023-03-29T00:58:37.512Z,79.40
2023-03-29T01:00:54.643Z,79.31
2023-03-29T01:03:14.103Z,79.50
2023-03-29T01:05:30.073Z,79.52
2023-03-29T01:07:48.562Z,79.82
2023-03-29T01:10:01.989Z,79.90
2023-03-29T01:12:19.148Z,80.03
2023-03-29T01:14:36.285Z,80.11
2023-03-29T01:16:47.353Z,80.15
2023-03-29T01:18:58.737Z,80.40
2023-03-29T01:21:29.794Z,80.34
2023-03-29T01:23:58.719Z,80.25
2023-03-29T01:26:16.953Z,80.28
2023-03-29T01:28:32.029Z,80.71
2023-03-29T01:30:48.802Z,80.82
2023-03-29T01:33:02.272Z,80.65
2023-03-29T01:35:17.966Z,80.66
2023-03-29T01:37:32.824Z,80.79
2023-03-29T01:39:42.765Z,80.54
2023-03-29T01:42:05.313Z,80.47
2023-03-29T01:44:20.798Z,81.02
2023-03-29T01:46:36.556Z,80.99
2023-03-29T01:48:52.893Z,81.08
2023-03-29T01:51:09.630Z,81.39
2023-03-29T01:53:25.164Z,81.56
2023-03-29T01:55:38.820Z,81.73
2023-03-29T01:57:51.092Z,81.73
2023-03-29T02:00:07.814Z,81.77
2023-03-29T02:02:22.838Z,81.79
2023-03-29T02:04:38.523Z,81.88
2023-03-29T02:06:50.993Z,81.81
2023-03-29T02:09:01.020Z,81.81
2023-03-29T02:11:11.151Z,81.41
2023-03-29T02:13:21.583Z,81.52
2023-03-29T02:15:32.359Z,81.67
2023-03-29T02:17:42.907Z,81.75
2023-03-29T02:19:56.423Z,81.69
2023-03-29T02:22:11.860Z,81.82
2023-03-29T02:24:26.663Z,81.60
2023-03-29T02:26:37.177Z,81.44
2023-03-29T02:28:47.165Z,81.52
2023-03-29T02:31:01.970Z,81.56
2023-03-29T02:33:17.416Z,81.59
2023-03-29T02:35:35.368Z,81.18
2023-03-29T02:37:49.952Z,81.15
2023-03-29T02:40:01.479Z,81.44
2023-03-29T02:42:12.603Z,81.56
2023-03-29T02:44:26.693Z,81.38
2023-03-29T02:46:38.494Z,81.53
2023-03-29T02:48:51.904Z,81.90
2023-03-29T02:51:07.486Z,82.00
2023-03-29T02:53:21.515Z,82.29
2023-03-29T02:55:36.166Z,82.29
2023-03-29T02:57:46.688Z,82.50
2023-03-29T02:59:57.906Z,82.27
2023-03-29T03:02:07.945Z,82.40
2023-03-29T03:04:21.556Z,82.42
2023-03-29T03:06:33.805Z,82.38
2023-03-29T03:08:46.751Z,82.46
2023-03-29T03:10:57.363Z,82.70
2023-03-29T03:13:07.755Z,82.62
2023-03-29T03:15:18.384Z,82.51
2023-03-29T03:17:28.789Z,82.49
2023-03-29T03:19:39.324Z,82.57
2023-03-29T03:21:50.052Z,82.65
2023-03-29T03:24:00.359Z,82.81
2023-03-29T03:26:11.462Z,82.89
2023-03-29T03:28:24.635Z,82.87
2023-03-29T03:30:35.279Z,83.01
2023-03-29T03:33:03.465Z,82.82
2023-03-29T03:35:32.261Z,82.91
2023-03-29T03:37:43.441Z,82.99
2023-03-29T03:39:54.464Z,82.94
2023-03-29T03:42:07.889Z,82.86
2023-03-29T03:44:22.824Z,83.03
2023-03-29T03:46:48.970Z,83.10
2023-03-29T03:48:59.910Z,83.13
2023-03-29T03:51:16.798Z,83.46
2023-03-29T03:53:28.332Z,83.55
2023-03-29T03:55:58.637Z,83.52
2023-03-29T03:58:14.509Z,83.60
2023-03-29T04:00:25.006Z,83.76
2023-03-29T04:02:44.737Z,83.78
2023-03-29T04:04:55.529Z,83.73
2023-03-29T04:07:13.894Z,83.77
2023-03-29T04:09:42.950Z,83.84
2023-03-29T04:12:10.091Z,84.08
2023-03-29T04:14:21.162Z,84.07
2023-03-29T04:16:31.991Z,84.00
2023-03-29T04:18:50.748Z,83.97
2023-03-29T04:21:01.650Z,84.06
2023-03-29T04:23:14.124Z,83.94
2023-03-29T04:25:24.597Z,83.90
2023-03-29T04:28:01.157Z,83.76
2023-03-29T04:30:34.621Z,83.76
2023-03-29T04:33:13.505Z,83.91
2023-03-29T04:35:24.925Z,83.99
2023-03-29T04:37:35.110Z,83.72
2023-03-29T04:39:45.855Z,83.88
2023-03-29T04:41:56.097Z,83.87
2023-03-29T04:44:10.308Z,83.85
2023-03-29T04:46:20.614Z,83.87
2023-03-29T04:48:54.417Z,84.03
2023-03-29T04:51:13.316Z,84.06
2023-03-29T04:53:24.724Z,84.05
2023-03-29T04:55:34.487Z,84.23
2023-03-29T04:57:46.187Z,84.35
2023-03-29T05:00:01.970Z,84.38
2023-03-29T05:02:38.225Z,84.41
2023-03-29T05:04:48.388Z,84.30
2023-03-29T05:06:59.845Z,84.35
2023-03-29T05:09:11.165Z,84.35
2023-03-29T05:11:28.962Z,84.49
2023-03-29T05:13:40.493Z,84.63
2023-03-29T05:15:50.475Z,84.67
2023-03-29T05:18:01.203Z,84.98
2023-03-29T05:20:13.752Z,85.02
2023-03-29T05:22:26.311Z,84.99
2023-03-29T05:24:39.158Z,85.04
2023-03-29T05:26:57.028Z,85.09
2023-03-29T05:29:09.712Z,84.95
2023-03-29T05:31:20.605Z,84.79
2023-03-29T05:33:36.941Z,84.77
2023-03-29T05:35:47.979Z,84.66
2023-03-29T05:37:58.793Z,84.60
2023-03-29T05:40:10.792Z,84.61
2023-03-29T05:42:47.159Z,84.54
2023-03-29T05:44:59.469Z,84.41
2023-03-29T05:47:09.460Z,84.31
2023-03-29T05:49:19.318Z,84.37
2023-03-29T05:51:39.945Z,84.52
2023-03-29T05:53:49.711Z,84.52
2023-03-29T05:55:59.714Z,84.46
2023-03-29T05:58:10.783Z,84.26
2023-03-29T06:00:26.111Z,84.21
2023-03-29T06:02:42.814Z,84.21
2023-03-29T06:04:54.378Z,84.18
2023-03-29T06:07:07.524Z,84.26
2023-03-29T06:09:20.965Z,83.90
2023-03-29T06:11:42.214Z,83.90
2023-03-29T06:14:05.295Z,83.88
2023-03-29T06:16:16.020Z,83.78
2023-03-29T06:18:26.073Z,83.89
2023-03-29T06:20:35.992Z,83.82
2023-03-29T06:22:50.502Z,83.56
2023-03-29T06:25:00.301Z,83.88
2023-03-29T06:27:12.435Z,83.89
2023-03-29T06:29:26.324Z,83.88
2023-03-29T06:31:37.762Z,84.13
2023-03-29T06:33:48.534Z,84.13
2023-03-29T06:36:17.138Z,84.14
2023-03-29T06:38:28.795Z,84.27
2023-03-29T06:41:04.691Z,84.32
2023-03-29T06:43:30.215Z,84.52
2023-03-29T06:45:50.974Z,84.70
2023-03-29T06:48:17.098Z,84.92
2023-03-29T06:50:28.343Z,84.99
2023-03-29T06:53:04.828Z,85.18
2023-03-29T06:55:16.462Z,85.40
2023-03-29T06:57:26.804Z,85.46
2023-03-29T06:59:37.193Z,85.47
2023-03-29T07:02:09.236Z,85.45
2023-03-29T07:04:32.867Z,85.54
2023-03-29T07:07:02.918Z,85.73
2023-03-29T07:09:18.280Z,85.74
2023-03-29T07:11:55.214Z,85.59
2023-03-29T07:14:06.553Z,85.64
2023-03-29T07:16:16.978Z,85.64
2023-03-29T07:18:37.000Z,85.58
2023-03-29T07:20:48.044Z,85.37
2023-03-29T07:22:58.452Z,85.47
2023-03-29T07:25:10.037Z,85.47
2023-03-29T07:27:21.258Z,85.57
2023-03-29T07:29:31.872Z,85.86
2023-03-29T07:31:42.552Z,85.84
2023-03-29T07:34:33.162Z,86.51
2023-03-29T07:36:44.287Z,86.53
2023-03-29T07:38:56.309Z,86.31
2023-03-29T07:41:08.506Z,86.53
2023-03-29T07:43:33.000Z,86.35
2023-03-29T07:45:45.143Z,86.10
2023-03-29T07:47:59.048Z,86.25
2023-03-29T07:50:15.398Z,86.23
2023-03-29T07:52:26.030Z,86.07
2023-03-29T07:54:36.139Z,86.20
2023-03-29T07:57:09.457Z,86.28
2023-03-29T07:59:25.290Z,86.01
2023-03-29T08:01:43.539Z,85.98
2023-03-29T08:04:12.823Z,86.06
2023-03-29T08:06:41.328Z,86.29
2023-03-29T08:08:51.270Z,86.33
2023-03-29T08:11:01.257Z,86.39
2023-03-29T08:13:40.671Z,86.21
2023-03-29T08:16:12.388Z,86.14
2023-03-29T08:18:32.847Z,86.22
2023-03-29T08:20:45.343Z,86.19
2023-03-29T08:22:56.392Z,86.23
2023-03-29T08:25:39.335Z,86.34
2023-03-29T08:27:51.266Z,86.30
2023-03-29T08:30:13.469Z,86.37
2023-03-29T08:32:24.052Z,86.37
2023-03-29T08:34:36.336Z,86.44
2023-03-29T08:37:04.159Z,86.63
2023-03-29T08:39:27.534Z,86.41
2023-03-29T08:42:10.003Z,86.17
2023-03-29T08:44:29.533Z,86.09
2023-03-29T08:46:52.499Z,86.37
2023-03-29T08:49:12.720Z,86.28
2023-03-29T08:51:27.981Z,86.21
2023-03-29T08:53:43.264Z,86.26
2023-03-29T08:56:20.352Z,86.16
2023-03-29T08:58:50.134Z,86.14
2023-03-29T09:01:02.971Z,86.04
2023-03-29T09:03:24.302Z,86.15
2023-03-29T09:05:41.074Z,86.08
2023-03-29T09:08:07.773Z,85.80
2023-03-29T09:10:19.875Z,85.87
2023-03-29T09:12:43.628Z,85.90
2023-03-29T09:15:07.359Z,85.70
2023-03-29T09:17:37.896Z,85.68
2023-03-29T09:19:57.143Z,85.85
2023-03-29T09:22:17.621Z,85.74
2023-03-29T09:25:02.757Z,85.73
2023-03-29T09:27:18.884Z,85.86
2023-03-29T09:29:51.892Z,85.96
2023-03-29T09:32:13.144Z,85.75
2023-03-29T09:34:30.787Z,85.73
2023-03-29T09:36:52.802Z,85.93
2023-03-29T09:39:05.421Z,85.84
2023-03-29T09:41:25.372Z,85.92
2023-03-29T09:43:40.441Z,86.03
2023-03-29T09:45:59.678Z,86.10
2023-03-29T09:48:15.357Z,86.12
2023-03-29T09:50:33.328Z,86.20
2023-03-29T09:52:44.989Z,86.10
2023-03-29T09:55:02.095Z,85.98
2023-03-29T09:57:35.663Z,86.11
2023-03-29T09:59:46.589Z,86.15
2023-03-29T10:02:07.240Z,86.17
2023-03-29T10:04:22.032Z,85.92
2023-03-29T10:06:37.262Z,85.80
2023-03-29T10:08:53.934Z,85.99
2023-03-29T10:11:09.157Z,85.94
2023-03-29T10:13:24.585Z,85.97
2023-03-29T10:15:35.083Z,86.09
2023-03-29T10:17:46.606Z,86.17
2023-03-29T10:19:58.619Z,86.27
2023-03-29T10:22:17.111Z,86.32
2023-03-29T10:24:28.903Z,86.47
2023-03-29T10:26:40.543Z,86.39
2023-03-29T10:28:53.292Z,86.53
2023-03-29T10:31:06.684Z,86.71
2023-03-29T10:33:24.480Z,86.79
2023-03-29T10:35:40.782Z,86.89
2023-03-29T10:37:55.636Z,87.25
2023-03-29T10:40:06.401Z,87.79
2023-03-29T10:42:18.637Z,87.91
2023-03-29T10:44:34.966Z,88.11
2023-03-29T10:46:47.509Z,88.26
2023-03-29T10:48:58.565Z,88.43
2023-03-29T10:51:09.747Z,88.71
2023-03-29T10:53:25.389Z,88.93
2023-03-29T10:55:41.553Z,89.06
2023-03-29T10:58:03.314Z,89.13
2023-03-29T11:00:20.321Z,89.06
2023-03-29T11:03:07.111Z,89.30
2023-03-29T11:05:26.401Z,89.24
2023-03-29T11:07:42.382Z,89.35
2023-03-29T11:10:01.475Z,89.25
2023-03-29T11:12:19.201Z,89.33
2023-03-29T11:14:40.932Z,89.32
2023-03-29T11:17:01.055Z,89.26
2023-03-29T11:19:22.334Z,89.36
2023-03-29T11:21:41.474Z,89.05
2023-03-29T11:23:59.125Z,89.17
2023-03-29T11:26:18.471Z,89.18
2023-03-29T11:28:39.518Z,88.97
2023-03-29T11:30:59.786Z,88.96
2023-03-29T11:33:32.442Z,88.98
2023-03-29T11:35:50.374Z,88.78
2023-03-29T11:38:07.852Z,88.77
2023-03-29T11:40:40.730Z,88.77
2023-03-29T11:42:56.066Z,88.77
2023-03-29T11:45:08.599Z,88.76
2023-03-29T11:47:20.008Z,88.61
2023-03-29T11:49:35.308Z,88.66
2023-03-29T11:51:49.751Z,88.54
2023-03-29T11:54:10.080Z,88.58
2023-03-29T11:56:26.694Z,88.37
2023-03-29T11:58:42.051Z,88.56
2023-03-29T12:00:59.047Z,88.46
2023-03-29T12:03:14.952Z,88.45
2023-03-29T12:05:28.950Z,88.39
2023-03-29T12:07:44.312Z,88.38
2023-03-29T12:09:58.755Z,88.26
2023-03-29T12:12:15.842Z,88.23
2023-03-29T12:14:30.617Z,88.07
2023-03-29T12:16:46.410Z,88.12
2023-03-29T12:19:00.188Z,87.86
2023-03-29T12:21:15.075Z,88.00
2023-03-29T12:23:26.167Z,87.96
2023-03-29T12:25:47.217Z,87.87
2023-03-29T12:28:08.286Z,87.84
2023-03-29T12:30:41.440Z,88.02
2023-03-29T12:33:12.029Z,87.93
2023-03-29T12:35:39.082Z,87.87
2023-03-29T12:38:15.804Z,87.80
2023-03-29T12:40:48.399Z,87.69
2023-03-29T12:43:31.006Z,87.53
2023-03-29T12:46:12.383Z,87.34
2023-03-29T12:48:25.293Z,87.36
2023-03-29T12:50:39.916Z,87.29
2023-03-29T12:52:49.875Z,87.37
2023-03-29T12:55:01.526Z,87.55
2023-03-29T12:57:28.565Z,87.61
2023-03-29T12:59:46.877Z,87.50
2023-03-29T13:02:26.453Z,87.28
2023-03-29T13:04:51.450Z,86.81
2023-03-29T13:07:07.579Z,86.69
2023-03-29T13:09:30.034Z,86.60
2023-03-29T13:11:44.290Z,86.63
2023-03-29T13:13:55.553Z,86.54
2023-03-29T13:16:17.480Z,86.72
2023-03-29T13:18:51.445Z,86.88
2023-03-29T13:21:12.145Z,86.86
2023-03-29T13:23:42.562Z,86.74
2023-03-29T13:26:13.646Z,86.60
2023-03-29T13:28:31.766Z,86.22
2023-03-29T13:30:54.608Z,86.21
2023-03-29T13:33:21.486Z,86.17
2023-03-29T13:35:44.052Z,86.39
2023-03-29T13:38:07.176Z,86.70
2023-03-29T13:40:45.329Z,86.70
2023-03-29T13:43:02.374Z,86.89
2023-03-29T13:45:19.175Z,86.91
2023-03-29T13:47:58.254Z,87.09
2023-03-29T13:50:19.485Z,87.43
2023-03-29T13:52:32.962Z,87.74
2023-03-29T13:54:48.457Z,87.73
2023-03-29T13:57:08.191Z,87.61
2023-03-29T13:59:22.614Z,87.05
2023-03-29T14:01:40.190Z,86.86
2023-03-29T14:03:52.235Z,86.59
2023-03-29T14:06:05.377Z,86.64
2023-03-29T14:08:23.033Z,86.80
2023-03-29T14:10:38.244Z,87.11
2023-03-29T14:12:48.583Z,87.11
2023-03-29T14:15:06.239Z,87.27
2023-03-29T14:17:23.124Z,88.03
2023-03-29T14:19:37.124Z,88.11
2023-03-29T14:21:47.984Z,88.23
2023-03-29T14:24:02.814Z,88.46
2023-03-29T14:26:19.492Z,88.45
2023-03-29T14:28:31.143Z,88.29
2023-03-29T14:30:48.456Z,88.10
2023-03-29T14:32:59.065Z,87.99
2023-03-29T14:35:13.328Z,88.07
2023-03-29T14:37:30.753Z,88.21
2023-03-29T14:39:42.632Z,88.25
2023-03-29T14:41:54.902Z,88.29
2023-03-29T14:44:05.261Z,88.32
2023-03-29T14:46:17.629Z,88.38
2023-03-29T14:48:25.583Z,88.25
2023-03-29T14:50:35.562Z,88.54
2023-03-29T14:52:47.575Z,88.66
2023-03-29T14:55:01.334Z,88.94
2023-03-29T14:57:15.923Z,89.30
2023-03-29T14:59:38.484Z,89.63
2023-03-29T15:01:49.514Z,89.70
2023-03-29T15:04:08.106Z,89.83
2023-03-29T15:06:18.902Z,90.24
2023-03-29T15:08:34.782Z,90.17
2023-03-29T15:10:45.155Z,90.47
2023-03-29T15:12:55.704Z,90.30
2023-03-29T15:15:08.214Z,90.19
2023-03-29T15:17:28.068Z,90.21
2023-03-29T15:19:43.479Z,90.40
2023-03-29T15:21:54.729Z,90.37
2023-03-29T15:24:06.409Z,90.31
2023-03-29T15:26:23.813Z,90.33
2023-03-29T15:28:35.621Z,90.25
2023-03-29T15:31:00.790Z,90.14
2023-03-29T15:33:25.387Z,90.22
2023-03-29T15:35:35.556Z,90.46
2023-03-29T15:37:47.763Z,90.59
2023-03-29T15:39:58.099Z,90.66
2023-03-29T15:42:08.578Z,90.81
2023-03-29T15:44:19.633Z,91.06
2023-03-29T15:46:29.833Z,91.35
2023-03-29T15:48:39.813Z,91.44
2023-03-29T15:50:49.763Z,91.97
2023-03-29T15:53:14.103Z,92.45
2023-03-29T15:55:26.591Z,92.89
2023-03-29T15:57:37.457Z,93.27
2023-03-29T15:59:48.504Z,93.28
2023-03-29T16:01:58.775Z,93.32
2023-03-29T16:04:12.410Z,93.28
2023-03-29T16:06:24.349Z,92.90
2023-03-29T16:08:34.430Z,92.46
2023-03-29T16:10:45.452Z,92.35
2023-03-29T16:12:55.545Z,92.12
2023-03-29T16:15:10.904Z,91.96
2023-03-29T16:17:20.565Z,92.24
2023-03-29T16:19:31.496Z,92.01
2023-03-29T16:21:43.834Z,92.33
2023-03-29T16:23:53.779Z,92.39
2023-03-29T16:26:03.795Z,92.55
2023-03-29T16:28:17.172Z,92.95
2023-03-29T16:30:27.004Z,93.37
2023-03-29T16:32:36.872Z,93.49
2023-03-29T16:34:46.914Z,93.84
2023-03-29T16:36:57.343Z,94.01
2023-03-29T16:39:07.321Z,94.39
2023-03-29T16:41:19.480Z,94.59
2023-03-29T16:43:30.473Z,94.52
2023-03-29T16:45:40.837Z,95.01
2023-03-29T16:47:51.228Z,95.18
2023-03-29T16:50:01.647Z,94.78
2023-03-29T16:52:12.602Z,94.05
2023-03-29T16:54:22.714Z,93.20
2023-03-29T16:56:32.433Z,92.89
2023-03-29T16:58:44.629Z,92.72
2023-03-29T17:00:56.324Z,92.34
2023-03-29T17:03:06.725Z,91.92
2023-03-29T17:05:16.660Z,91.57
2023-03-29T17:07:26.811Z,90.90
2023-03-29T17:09:37.511Z,90.29
2023-03-29T17:11:47.712Z,89.91
2023-03-29T17:13:57.436Z,89.57
2023-03-29T17:16:07.812Z,89.47
2023-03-29T17:18:17.592Z,89.30
2023-03-29T17:20:27.498Z,89.38
2023-03-29T17:22:37.513Z,89.09
2023-03-29T17:24:47.237Z,88.87
2023-03-29T17:26:56.929Z,88.68
2023-03-29T17:29:07.445Z,87.93
2023-03-29T17:31:19.666Z,87.43
2023-03-29T17:33:29.692Z,86.88
2023-03-29T17:35:40.124Z,86.68
2023-03-29T17:37:49.952Z,84.99
2023-03-29T17:39:59.990Z,84.10
2023-03-29T17:42:10.508Z,83.13
2023-03-29T17:44:21.775Z,82.88
2023-03-29T17:46:31.779Z,82.22
2023-03-29T17:48:41.745Z,82.24
2023-03-29T17:50:51.623Z,82.90
2023-03-29T17:53:01.314Z,83.30
2023-03-29T17:55:14.076Z,83.60
2023-03-29T17:57:24.273Z,83.58
2023-03-29T17:59:34.422Z,83.47
2023-03-29T18:01:44.764Z,83.69
2023-03-29T18:03:55.342Z,83.72
2023-03-29T18:06:06.230Z,83.75
2023-03-29T18:08:17.490Z,83.91
2023-03-29T18:10:27.249Z,84.13
2023-03-29T18:12:37.283Z,84.48
2023-03-29T18:14:47.477Z,84.37
2023-03-29T18:16:58.234Z,84.02
2023-03-29T18:19:08.082Z,84.11
2023-03-29T18:21:18.653Z,84.43
2023-03-29T18:23:28.423Z,84.82
2023-03-29T18:25:39.339Z,84.85
2023-03-29T18:27:50.633Z,84.26
2023-03-29T18:30:00.534Z,83.26
2023-03-29T18:32:10.933Z,83.45
2023-03-29T18:34:21.414Z,83.98
2023-03-29T18:36:32.800Z,83.76
2023-03-29T18:38:44.026Z,83.55
2023-03-29T18:40:54.507Z,83.09
2023-03-29T18:43:04.685Z,83.02
2023-03-29T18:45:15.919Z,83.21
2023-03-29T18:47:26.081Z,83.47
2023-03-29T18:49:37.206Z,82.93
2023-03-29T18:51:48.018Z,82.56
2023-03-29T18:53:58.223Z,82.74
2023-03-29T18:56:08.569Z,82.06
2023-03-29T18:58:20.767Z,81.64
2023-03-29T19:00:30.705Z,81.80
2023-03-29T19:02:40.911Z,81.40
2023-03-29T19:04:51.756Z,81.61
2023-03-29T19:07:01.951Z,81.58
2023-03-29T19:09:11.648Z,81.51
2023-03-29T19:11:21.968Z,81.64
2023-03-29T19:13:31.719Z,81.66
2023-03-29T19:15:41.821Z,81.52
2023-03-29T19:17:51.932Z,81.58
2023-03-29T19:20:02.082Z,81.70
2023-03-29T19:22:12.032Z,81.86
2023-03-29T19:24:22.479Z,81.98
2023-03-29T19:26:33.815Z,81.94
2023-03-29T19:28:43.557Z,81.77
2023-03-29T19:30:53.371Z,81.70
2023-03-29T19:33:03.961Z,81.38
2023-03-29T19:35:14.549Z,81.07
2023-03-29T19:37:24.377Z,81.36
2023-03-29T19:39:34.385Z,80.76
2023-03-29T19:41:47.064Z,80.46
2023-03-29T19:43:57.342Z,81.01
2023-03-29T19:46:13.400Z,81.24
2023-03-29T19:48:24.315Z,80.70
2023-03-29T19:50:34.772Z,80.94
2023-03-29T19:52:44.605Z,81.23
2023-03-29T19:54:54.543Z,81.14
2023-03-29T19:57:05.106Z,80.50
2023-03-29T19:59:18.483Z,80.51
2023-03-29T20:01:28.574Z,80.39
2023-03-29T20:03:39.107Z,80.95
2023-03-29T20:05:50.605Z,80.72
2023-03-29T20:08:00.203Z,80.76
2023-03-29T20:10:11.569Z,81.03
2023-03-29T20:12:22.000Z,81.03
2023-03-29T20:14:32.013Z,81.14
2023-03-29T20:16:43.159Z,81.40
2023-03-29T20:18:54.491Z,80.99
2023-03-29T20:21:04.711Z,80.84
2023-03-29T20:23:16.070Z,80.66
2023-03-29T20:25:26.295Z,80.74
2023-03-29T20:27:36.150Z,80.60
2023-03-29T20:29:46.111Z,80.68
2023-03-29T20:31:55.704Z,80.45
2023-03-29T20:34:05.796Z,80.58
2023-03-29T20:36:19.169Z,80.29
2023-03-29T20:38:29.071Z,80.50
2023-03-29T20:40:39.422Z,80.23
2023-03-29T20:42:54.732Z,80.58
2023-03-29T20:45:05.369Z,80.83
2023-03-29T20:47:17.274Z,81.21
2023-03-29T20:49:27.872Z,81.05
2023-03-29T20:51:39.645Z,81.45
2023-03-29T20:53:49.754Z,81.08
2023-03-29T20:55:59.652Z,81.13
2023-03-29T20:58:10.365Z,81.41
2023-03-29T21:00:21.470Z,80.94
2023-03-29T21:02:31.165Z,80.50
2023-03-29T21:04:41.333Z,79.67
2023-03-29T21:06:51.434Z,79.87
2023-03-29T21:09:03.042Z,79.02
2023-03-29T21:11:18.742Z,79.79
2023-03-29T21:13:28.905Z,80.10
2023-03-29T21:15:39.123Z,78.03
2023-03-29T21:17:49.284Z,77.36
2023-03-29T21:19:59.572Z,76.10
2023-03-29T21:22:10.284Z,76.43
2023-03-29T21:24:21.274Z,75.42
2023-03-29T21:26:31.001Z,75.51
2023-03-29T21:28:41.663Z,75.70
2023-03-29T21:30:51.633Z,76.02
2023-03-29T21:33:01.978Z,76.20
2023-03-29T21:35:14.093Z,76.55
2023-03-29T21:37:24.044Z,76.88
2023-03-29T21:39:34.021Z,76.65
2023-03-29T21:41:43.851Z,76.78
2023-03-29T21:43:54.433Z,76.77
2023-03-29T21:46:04.336Z,77.10
2023-03-29T21:48:14.211Z,77.60
2023-03-29T21:50:24.301Z,78.04
2023-03-29T21:52:34.035Z,78.46
2023-03-29T21:54:43.714Z,78.32
2023-03-29T21:56:53.911Z,78.55
2023-03-29T21:59:04.114Z,78.73
2023-03-29T22:01:14.196Z,78.38
2023-03-29T22:03:24.367Z,78.61
2023-03-29T22:05:35.030Z,78.80
2023-03-29T22:07:45.070Z,78.73
2023-03-29T22:09:55.209Z,78.72
2023-03-29T22:12:05.399Z,78.78
2023-03-29T22:14:15.966Z,78.70
2023-03-29T22:16:28.631Z,78.86
2023-03-29T22:18:47.435Z,78.74
2023-03-29T22:20:57.290Z,78.26
2023-03-29T22:23:07.687Z,78.00
2023-03-29T22:25:18.246Z,77.89
2023-03-29T22:27:27.891Z,77.89
2023-03-29T22:29:37.769Z,77.34
2023-03-29T22:31:47.677Z,77.32
2023-03-29T22:33:59.114Z,77.57
2023-03-29T22:36:16.901Z,77.72
2023-03-29T22:38:26.679Z,77.66
2023-03-29T22:40:36.649Z,77.16
2023-03-29T22:42:47.198Z,76.98
2023-03-29T22:44:57.951Z,77.10
2023-03-29T22:47:07.984Z,77.45
2023-03-29T22:49:17.875Z,77.58
2023-03-29T22:51:27.946Z,77.86
2023-03-29T22:53:38.052Z,78.10
2023-03-29T22:55:47.819Z,77.90
2023-03-29T22:57:57.936Z,77.97
2023-03-29T23:00:09.531Z,78.01
2023-03-29T23:02:19.779Z,77.14
2023-03-29T23:04:29.880Z,77.66
2023-03-29T23:06:39.862Z,77.19
2023-03-29T23:08:49.710Z,76.40
2023-03-29T23:11:00.039Z,75.92
2023-03-29T23:13:10.121Z,75.43
2023-03-29T23:15:23.333Z,74.80
2023-03-29T23:17:33.184Z,74.71
2023-03-29T23:19:43.050Z,74.30
2023-03-29T23:21:53.512Z,73.99
2023-03-29T23:24:03.644Z,74.05
2023-03-29T23:26:15.008Z,74.52
2023-03-29T23:28:27.676Z,75.21
2023-03-29T23:30:39.425Z,75.48
2023-03-29T23:32:49.295Z,75.62
2023-03-29T23:35:00.502Z,75.12
2023-03-29T23:38:23.375Z,74.91
2023-03-29T23:40:24.100Z,74.82
2023-03-29T23:42:44.031Z,75.33
2023-03-29T23:44:53.959Z,75.52
2023-03-29T23:47:04.203Z,75.47
2023-03-29T23:49:14.330Z,75.04
2023-03-29T23:51:28.649Z,75.24
2023-03-29T23:53:38.267Z,75.08
2023-03-29T23:55:49.162Z,73.40
2023-03-29T23:57:58.800Z,72.89
